sensor_id;sensor_type;location;lat;lon;timestamp;P1;durP1;ratioP1;P2;durP2;ratioP2
72261;SDS011;60173;52.112;8.648;2023-06-26T00:01:58;8.05;;;6.93;;
72261;SDS011;60173;52.112;8.648;2023-06-26T00:04:25;9.75;;;8.30;;
72261;SDS011;60173;52.112;8.648;2023-06-26T00:06:51;8.82;;;7.82;;
72261;SDS011;60173;52.112;8.648;2023-06-26T00:09:17;8.50;;;7.32;;
72261;SDS011;60173;52.112;8.648;2023-06-26T00:11:44;9.52;;;7.28;;
72261;SDS011;60173;52.112;8.648;2023-06-26T00:14:10;8.52;;;7.45;;
72261;SDS011;60173;52.112;8.648;2023-06-26T00:16:37;8.98;;;7.32;;
72261;SDS011;60173;52.112;8.648;2023-06-26T00:19:03;9.55;;;7.60;;
72261;SDS011;60173;52.112;8.648;2023-06-26T00:21:29;10.18;;;7.88;;
72261;SDS011;60173;52.112;8.648;2023-06-26T00:23:56;8.95;;;7.68;;
72261;SDS011;60173;52.112;8.648;2023-06-26T00:26:22;8.85;;;7.53;;
72261;SDS011;60173;52.112;8.648;2023-06-26T00:28:48;8.65;;;7.57;;
72261;SDS011;60173;52.112;8.648;2023-06-26T00:31:15;8.40;;;7.55;;
72261;SDS011;60173;52.112;8.648;2023-06-26T00:33:41;9.13;;;7.70;;
72261;SDS011;60173;52.112;8.648;2023-06-26T00:36:08;9.15;;;7.40;;
72261;SDS011;60173;52.112;8.648;2023-06-26T00:38:34;8.63;;;7.72;;
72261;SDS011;60173;52.112;8.648;2023-06-26T00:41:01;8.70;;;7.78;;
72261;SDS011;60173;52.112;8.648;2023-06-26T00:43:27;8.75;;;7.82;;
72261;SDS011;60173;52.112;8.648;2023-06-26T00:45:54;8.20;;;7.30;;
72261;SDS011;60173;52.112;8.648;2023-06-26T00:48:21;12.40;;;7.68;;
72261;SDS011;60173;52.112;8.648;2023-06-26T00:50:47;9.95;;;7.43;;
72261;SDS011;60173;52.112;8.648;2023-06-26T00:53:14;8.80;;;7.30;;
72261;SDS011;60173;52.112;8.648;2023-06-26T00:55:40;9.38;;;7.38;;
72261;SDS011;60173;52.112;8.648;2023-06-26T00:58:07;10.30;;;7.38;;
72261;SDS011;60173;52.112;8.648;2023-06-26T01:00:33;9.05;;;7.50;;
72261;SDS011;60173;52.112;8.648;2023-06-26T01:03:00;8.77;;;7.70;;
72261;SDS011;60173;52.112;8.648;2023-06-26T01:05:27;10.75;;;7.63;;
72261;SDS011;60173;52.112;8.648;2023-06-26T01:07:55;10.50;;;7.43;;
72261;SDS011;60173;52.112;8.648;2023-06-26T01:10:23;9.23;;;8.23;;
72261;SDS011;60173;52.112;8.648;2023-06-26T01:12:50;9.73;;;7.80;;
72261;SDS011;60173;52.112;8.648;2023-06-26T01:15:17;8.93;;;7.47;;
72261;SDS011;60173;52.112;8.648;2023-06-26T01:17:43;8.82;;;7.85;;
72261;SDS011;60173;52.112;8.648;2023-06-26T01:20:10;10.13;;;8.00;;
72261;SDS011;60173;52.112;8.648;2023-06-26T01:28:35;9.07;;;8.15;;
72261;SDS011;60173;52.112;8.648;2023-06-26T01:31:05;10.00;;;8.10;;
72261;SDS011;60173;52.112;8.648;2023-06-26T01:33:32;8.93;;;7.85;;
72261;SDS011;60173;52.112;8.648;2023-06-26T01:35:59;9.98;;;7.78;;
72261;SDS011;60173;52.112;8.648;2023-06-26T01:38:26;9.50;;;8.20;;
72261;SDS011;60173;52.112;8.648;2023-06-26T01:40:53;9.25;;;7.18;;
72261;SDS011;60173;52.112;8.648;2023-06-26T01:46:10;8.82;;;7.93;;
72261;SDS011;60173;52.112;8.648;2023-06-26T01:49:02;9.88;;;8.40;;
72261;SDS011;60173;52.112;8.648;2023-06-26T01:57:48;9.65;;;7.70;;
72261;SDS011;60173;52.112;8.648;2023-06-26T02:00:19;8.65;;;7.75;;
72261;SDS011;60173;52.112;8.648;2023-06-26T02:02:46;9.45;;;7.97;;
72261;SDS011;60173;52.112;8.648;2023-06-26T02:05:13;8.75;;;7.68;;
72261;SDS011;60173;52.112;8.648;2023-06-26T02:07:40;9.05;;;7.68;;
72261;SDS011;60173;52.112;8.648;2023-06-26T02:10:07;11.68;;;7.78;;
72261;SDS011;60173;52.112;8.648;2023-06-26T02:12:36;12.05;;;8.15;;
72261;SDS011;60173;52.112;8.648;2023-06-26T02:15:03;8.82;;;7.70;;
72261;SDS011;60173;52.112;8.648;2023-06-26T02:17:30;11.00;;;7.88;;
72261;SDS011;60173;52.112;8.648;2023-06-26T02:19:56;9.55;;;7.72;;
72261;SDS011;60173;52.112;8.648;2023-06-26T02:22:23;10.30;;;8.13;;
72261;SDS011;60173;52.112;8.648;2023-06-26T02:24:49;9.90;;;8.10;;
72261;SDS011;60173;52.112;8.648;2023-06-26T02:27:15;8.63;;;7.38;;
72261;SDS011;60173;52.112;8.648;2023-06-26T02:29:42;10.88;;;8.38;;
72261;SDS011;60173;52.112;8.648;2023-06-26T02:32:08;9.75;;;8.45;;
72261;SDS011;60173;52.112;8.648;2023-06-26T02:34:35;11.15;;;7.88;;
72261;SDS011;60173;52.112;8.648;2023-06-26T02:37:01;12.18;;;8.32;;
72261;SDS011;60173;52.112;8.648;2023-06-26T02:39:28;9.32;;;7.45;;
72261;SDS011;60173;52.112;8.648;2023-06-26T02:41:54;10.27;;;8.02;;
72261;SDS011;60173;52.112;8.648;2023-06-26T02:44:21;10.50;;;8.18;;
72261;SDS011;60173;52.112;8.648;2023-06-26T02:46:47;9.95;;;7.50;;
72261;SDS011;60173;52.112;8.648;2023-06-26T02:49:14;9.57;;;7.63;;
72261;SDS011;60173;52.112;8.648;2023-06-26T02:51:40;9.05;;;8.15;;
72261;SDS011;60173;52.112;8.648;2023-06-26T02:54:06;14.05;;;8.20;;
72261;SDS011;60173;52.112;8.648;2023-06-26T02:56:33;10.18;;;8.15;;
72261;SDS011;60173;52.112;8.648;2023-06-26T02:59:01;10.55;;;8.13;;
72261;SDS011;60173;52.112;8.648;2023-06-26T03:01:28;10.95;;;8.05;;
72261;SDS011;60173;52.112;8.648;2023-06-26T03:03:55;10.43;;;7.45;;
72261;SDS011;60173;52.112;8.648;2023-06-26T03:06:21;10.10;;;7.35;;
72261;SDS011;60173;52.112;8.648;2023-06-26T03:08:48;10.80;;;8.15;;
72261;SDS011;60173;52.112;8.648;2023-06-26T03:11:14;11.48;;;8.25;;
72261;SDS011;60173;52.112;8.648;2023-06-26T03:13:40;10.98;;;7.63;;
72261;SDS011;60173;52.112;8.648;2023-06-26T03:16:07;9.35;;;8.35;;
72261;SDS011;60173;52.112;8.648;2023-06-26T03:18:33;11.30;;;8.05;;
72261;SDS011;60173;52.112;8.648;2023-06-26T03:21:00;13.48;;;8.27;;
72261;SDS011;60173;52.112;8.648;2023-06-26T03:23:26;10.02;;;8.38;;
72261;SDS011;60173;52.112;8.648;2023-06-26T03:25:53;10.25;;;8.48;;
72261;SDS011;60173;52.112;8.648;2023-06-26T03:28:19;10.63;;;8.10;;
72261;SDS011;60173;52.112;8.648;2023-06-26T03:30:46;11.15;;;7.95;;
72261;SDS011;60173;52.112;8.648;2023-06-26T03:33:12;10.82;;;8.38;;
72261;SDS011;60173;52.112;8.648;2023-06-26T03:35:39;11.98;;;8.25;;
72261;SDS011;60173;52.112;8.648;2023-06-26T03:38:05;13.13;;;8.00;;
72261;SDS011;60173;52.112;8.648;2023-06-26T03:40:31;9.82;;;7.82;;
72261;SDS011;60173;52.112;8.648;2023-06-26T03:42:58;11.43;;;8.60;;
72261;SDS011;60173;52.112;8.648;2023-06-26T03:45:24;11.35;;;7.90;;
72261;SDS011;60173;52.112;8.648;2023-06-26T03:47:51;13.43;;;8.13;;
72261;SDS011;60173;52.112;8.648;2023-06-26T03:50:17;11.75;;;8.23;;
72261;SDS011;60173;52.112;8.648;2023-06-26T03:52:44;10.27;;;8.13;;
72261;SDS011;60173;52.112;8.648;2023-06-26T03:55:10;9.80;;;7.57;;
72261;SDS011;60173;52.112;8.648;2023-06-26T03:57:37;11.15;;;8.13;;
72261;SDS011;60173;52.112;8.648;2023-06-26T04:00:03;9.25;;;7.78;;
72261;SDS011;60173;52.112;8.648;2023-06-26T04:02:30;10.73;;;7.50;;
72261;SDS011;60173;52.112;8.648;2023-06-26T04:04:57;10.48;;;7.22;;
72261;SDS011;60173;52.112;8.648;2023-06-26T04:07:23;11.10;;;7.32;;
72261;SDS011;60173;52.112;8.648;2023-06-26T04:09:50;9.40;;;7.57;;
72261;SDS011;60173;52.112;8.648;2023-06-26T04:12:16;10.32;;;7.88;;
72261;SDS011;60173;52.112;8.648;2023-06-26T04:14:42;9.38;;;7.65;;
72261;SDS011;60173;52.112;8.648;2023-06-26T04:17:10;9.25;;;7.68;;
72261;SDS011;60173;52.112;8.648;2023-06-26T04:19:36;8.75;;;7.22;;
72261;SDS011;60173;52.112;8.648;2023-06-26T04:22:02;10.23;;;7.55;;
72261;SDS011;60173;52.112;8.648;2023-06-26T04:24:29;10.45;;;7.60;;
72261;SDS011;60173;52.112;8.648;2023-06-26T04:26:55;8.43;;;7.18;;
72261;SDS011;60173;52.112;8.648;2023-06-26T04:29:28;8.52;;;7.32;;
72261;SDS011;60173;52.112;8.648;2023-06-26T04:31:55;8.00;;;7.20;;
72261;SDS011;60173;52.112;8.648;2023-06-26T04:34:21;8.77;;;7.50;;
72261;SDS011;60173;52.112;8.648;2023-06-26T04:36:47;12.60;;;8.18;;
72261;SDS011;60173;52.112;8.648;2023-06-26T04:39:14;12.25;;;7.38;;
72261;SDS011;60173;52.112;8.648;2023-06-26T04:41:40;9.10;;;7.60;;
72261;SDS011;60173;52.112;8.648;2023-06-26T04:44:07;10.43;;;7.28;;
72261;SDS011;60173;52.112;8.648;2023-06-26T04:46:33;8.25;;;6.85;;
72261;SDS011;60173;52.112;8.648;2023-06-26T04:48:59;9.95;;;7.22;;
72261;SDS011;60173;52.112;8.648;2023-06-26T04:51:26;8.18;;;7.00;;
72261;SDS011;60173;52.112;8.648;2023-06-26T04:53:52;8.07;;;6.57;;
72261;SDS011;60173;52.112;8.648;2023-06-26T04:56:19;9.00;;;7.18;;
72261;SDS011;60173;52.112;8.648;2023-06-26T04:58:45;9.07;;;7.00;;
72261;SDS011;60173;52.112;8.648;2023-06-26T05:01:11;9.57;;;6.72;;
72261;SDS011;60173;52.112;8.648;2023-06-26T05:03:38;9.05;;;6.75;;
72261;SDS011;60173;52.112;8.648;2023-06-26T05:06:05;8.00;;;6.40;;
72261;SDS011;60173;52.112;8.648;2023-06-26T05:08:35;9.32;;;7.07;;
72261;SDS011;60173;52.112;8.648;2023-06-26T05:11:01;10.23;;;6.70;;
72261;SDS011;60173;52.112;8.648;2023-06-26T05:13:28;9.07;;;6.68;;
72261;SDS011;60173;52.112;8.648;2023-06-26T05:15:54;8.02;;;6.72;;
72261;SDS011;60173;52.112;8.648;2023-06-26T05:18:20;8.90;;;6.97;;
72261;SDS011;60173;52.112;8.648;2023-06-26T05:20:47;8.50;;;7.15;;
72261;SDS011;60173;52.112;8.648;2023-06-26T05:23:14;12.30;;;6.93;;
72261;SDS011;60173;52.112;8.648;2023-06-26T05:25:42;11.80;;;7.65;;
72261;SDS011;60173;52.112;8.648;2023-06-26T05:28:09;10.07;;;6.88;;
72261;SDS011;60173;52.112;8.648;2023-06-26T05:30:36;10.52;;;7.50;;
72261;SDS011;60173;52.112;8.648;2023-06-26T05:33:03;9.68;;;7.40;;
72261;SDS011;60173;52.112;8.648;2023-06-26T05:35:30;10.38;;;7.07;;
72261;SDS011;60173;52.112;8.648;2023-06-26T05:37:57;9.23;;;6.95;;
72261;SDS011;60173;52.112;8.648;2023-06-26T05:40:24;8.27;;;6.30;;
72261;SDS011;60173;52.112;8.648;2023-06-26T05:42:51;11.63;;;7.70;;
72261;SDS011;60173;52.112;8.648;2023-06-26T05:45:18;8.73;;;6.50;;
72261;SDS011;60173;52.112;8.648;2023-06-26T05:47:44;9.43;;;7.45;;
72261;SDS011;60173;52.112;8.648;2023-06-26T05:50:11;9.82;;;6.95;;
72261;SDS011;60173;52.112;8.648;2023-06-26T05:52:38;8.40;;;6.85;;
72261;SDS011;60173;52.112;8.648;2023-06-26T05:55:05;8.82;;;7.22;;
72261;SDS011;60173;52.112;8.648;2023-06-26T05:57:32;9.05;;;6.88;;
72261;SDS011;60173;52.112;8.648;2023-06-26T06:00:00;9.15;;;7.00;;
72261;SDS011;60173;52.112;8.648;2023-06-26T06:02:27;8.15;;;6.72;;
72261;SDS011;60173;52.112;8.648;2023-06-26T06:04:54;10.00;;;6.32;;
72261;SDS011;60173;52.112;8.648;2023-06-26T06:07:21;12.40;;;7.18;;
72261;SDS011;60173;52.112;8.648;2023-06-26T06:09:47;7.70;;;6.68;;
72261;SDS011;60173;52.112;8.648;2023-06-26T06:12:14;9.52;;;6.75;;
72261;SDS011;60173;52.112;8.648;2023-06-26T06:14:40;11.43;;;6.82;;
72261;SDS011;60173;52.112;8.648;2023-06-26T06:17:06;9.73;;;7.22;;
72261;SDS011;60173;52.112;8.648;2023-06-26T06:19:33;12.23;;;7.55;;
72261;SDS011;60173;52.112;8.648;2023-06-26T06:21:59;9.15;;;7.03;;
72261;SDS011;60173;52.112;8.648;2023-06-26T06:24:25;8.43;;;7.20;;
72261;SDS011;60173;52.112;8.648;2023-06-26T06:26:52;8.70;;;7.15;;
72261;SDS011;60173;52.112;8.648;2023-06-26T06:29:18;7.68;;;6.68;;
72261;SDS011;60173;52.112;8.648;2023-06-26T06:31:45;8.38;;;6.75;;
72261;SDS011;60173;52.112;8.648;2023-06-26T06:34:11;8.85;;;7.65;;
72261;SDS011;60173;52.112;8.648;2023-06-26T06:36:38;13.93;;;6.68;;
72261;SDS011;60173;52.112;8.648;2023-06-26T06:39:04;9.70;;;7.25;;
72261;SDS011;60173;52.112;8.648;2023-06-26T06:41:30;10.70;;;7.22;;
72261;SDS011;60173;52.112;8.648;2023-06-26T06:43:57;15.25;;;7.97;;
72261;SDS011;60173;52.112;8.648;2023-06-26T06:46:23;13.68;;;8.52;;
72261;SDS011;60173;52.112;8.648;2023-06-26T06:48:49;11.65;;;8.50;;
72261;SDS011;60173;52.112;8.648;2023-06-26T06:51:16;10.77;;;7.85;;
72261;SDS011;60173;52.112;8.648;2023-06-26T06:53:42;11.88;;;8.65;;
72261;SDS011;60173;52.112;8.648;2023-06-26T06:56:09;10.75;;;8.02;;
72261;SDS011;60173;52.112;8.648;2023-06-26T06:58:35;10.35;;;8.13;;
72261;SDS011;60173;52.112;8.648;2023-06-26T07:01:02;12.38;;;8.27;;
72261;SDS011;60173;52.112;8.648;2023-06-26T07:03:28;9.80;;;8.18;;
72261;SDS011;60173;52.112;8.648;2023-06-26T07:05:55;11.43;;;8.25;;
72261;SDS011;60173;52.112;8.648;2023-06-26T07:08:21;9.75;;;7.63;;
72261;SDS011;60173;52.112;8.648;2023-06-26T07:10:48;13.35;;;8.70;;
72261;SDS011;60173;52.112;8.648;2023-06-26T07:13:14;10.77;;;8.77;;
72261;SDS011;60173;52.112;8.648;2023-06-26T07:15:40;13.07;;;9.07;;
72261;SDS011;60173;52.112;8.648;2023-06-26T07:18:07;10.95;;;8.38;;
72261;SDS011;60173;52.112;8.648;2023-06-26T07:20:34;14.98;;;9.40;;
72261;SDS011;60173;52.112;8.648;2023-06-26T07:23:00;17.05;;;9.25;;
72261;SDS011;60173;52.112;8.648;2023-06-26T07:25:26;13.73;;;8.77;;
72261;SDS011;60173;52.112;8.648;2023-06-26T07:27:53;12.85;;;8.85;;
72261;SDS011;60173;52.112;8.648;2023-06-26T07:30:19;17.50;;;10.77;;
72261;SDS011;60173;52.112;8.648;2023-06-26T07:32:45;14.30;;;8.55;;
72261;SDS011;60173;52.112;8.648;2023-06-26T07:35:12;8.80;;;7.90;;
72261;SDS011;60173;52.112;8.648;2023-06-26T07:37:38;9.00;;;7.53;;
72261;SDS011;60173;52.112;8.648;2023-06-26T07:40:05;10.75;;;9.05;;
72261;SDS011;60173;52.112;8.648;2023-06-26T07:42:32;12.20;;;7.50;;
72261;SDS011;60173;52.112;8.648;2023-06-26T07:44:58;17.48;;;8.80;;
72261;SDS011;60173;52.112;8.648;2023-06-26T07:47:24;10.98;;;7.82;;
72261;SDS011;60173;52.112;8.648;2023-06-26T07:49:51;12.73;;;8.25;;
72261;SDS011;60173;52.112;8.648;2023-06-26T07:52:18;12.02;;;8.20;;
72261;SDS011;60173;52.112;8.648;2023-06-26T07:54:45;9.60;;;7.95;;
72261;SDS011;60173;52.112;8.648;2023-06-26T07:57:11;13.07;;;7.82;;
72261;SDS011;60173;52.112;8.648;2023-06-26T07:59:38;13.95;;;8.73;;
72261;SDS011;60173;52.112;8.648;2023-06-26T08:02:04;18.02;;;8.75;;
72261;SDS011;60173;52.112;8.648;2023-06-26T08:04:32;10.80;;;8.82;;
72261;SDS011;60173;52.112;8.648;2023-06-26T08:06:59;11.40;;;8.57;;
72261;SDS011;60173;52.112;8.648;2023-06-26T08:09:27;10.75;;;7.82;;
72261;SDS011;60173;52.112;8.648;2023-06-26T08:11:55;13.48;;;10.13;;
72261;SDS011;60173;52.112;8.648;2023-06-26T08:14:22;14.57;;;9.77;;
72261;SDS011;60173;52.112;8.648;2023-06-26T08:16:50;11.52;;;8.63;;
72261;SDS011;60173;52.112;8.648;2023-06-26T08:19:16;10.38;;;8.27;;
72261;SDS011;60173;52.112;8.648;2023-06-26T08:21:44;10.50;;;8.80;;
72261;SDS011;60173;52.112;8.648;2023-06-26T08:24:11;12.70;;;9.27;;
72261;SDS011;60173;52.112;8.648;2023-06-26T08:26:37;14.25;;;9.13;;
72261;SDS011;60173;52.112;8.648;2023-06-26T08:29:04;12.93;;;8.38;;
72261;SDS011;60173;52.112;8.648;2023-06-26T08:31:30;13.55;;;9.55;;
72261;SDS011;60173;52.112;8.648;2023-06-26T08:33:57;12.35;;;8.40;;
72261;SDS011;60173;52.112;8.648;2023-06-26T08:36:23;12.93;;;9.63;;
72261;SDS011;60173;52.112;8.648;2023-06-26T08:38:50;15.20;;;10.05;;
72261;SDS011;60173;52.112;8.648;2023-06-26T08:41:16;15.20;;;10.60;;
72261;SDS011;60173;52.112;8.648;2023-06-26T08:43:42;12.32;;;9.43;;
72261;SDS011;60173;52.112;8.648;2023-06-26T08:46:09;14.52;;;9.43;;
72261;SDS011;60173;52.112;8.648;2023-06-26T08:48:38;14.10;;;9.32;;
72261;SDS011;60173;52.112;8.648;2023-06-26T08:51:11;10.82;;;8.07;;
72261;SDS011;60173;52.112;8.648;2023-06-26T08:54:04;12.18;;;8.82;;
72261;SDS011;60173;52.112;8.648;2023-06-26T08:56:40;11.65;;;8.05;;
72261;SDS011;60173;52.112;8.648;2023-06-26T08:59:10;11.23;;;8.00;;
72261;SDS011;60173;52.112;8.648;2023-06-26T09:01:37;13.02;;;8.15;;
72261;SDS011;60173;52.112;8.648;2023-06-26T09:04:04;13.77;;;8.73;;
72261;SDS011;60173;52.112;8.648;2023-06-26T09:06:31;15.45;;;8.25;;
72261;SDS011;60173;52.112;8.648;2023-06-26T09:08:57;14.32;;;8.20;;
72261;SDS011;60173;52.112;8.648;2023-06-26T09:11:24;10.93;;;7.82;;
72261;SDS011;60173;52.112;8.648;2023-06-26T09:13:50;13.45;;;8.65;;
72261;SDS011;60173;52.112;8.648;2023-06-26T09:16:17;13.02;;;8.57;;
72261;SDS011;60173;52.112;8.648;2023-06-26T09:18:47;10.93;;;7.72;;
72261;SDS011;60173;52.112;8.648;2023-06-26T09:21:13;12.30;;;8.18;;
72261;SDS011;60173;52.112;8.648;2023-06-26T09:23:40;12.68;;;8.07;;
72261;SDS011;60173;52.112;8.648;2023-06-26T09:26:06;10.43;;;7.40;;
72261;SDS011;60173;52.112;8.648;2023-06-26T09:28:33;11.50;;;8.05;;
72261;SDS011;60173;52.112;8.648;2023-06-26T09:31:01;12.63;;;7.95;;
72261;SDS011;60173;52.112;8.648;2023-06-26T09:33:33;10.60;;;7.40;;
72261;SDS011;60173;52.112;8.648;2023-06-26T09:36:07;11.43;;;8.05;;
72261;SDS011;60173;52.112;8.648;2023-06-26T09:38:34;11.75;;;7.30;;
72261;SDS011;60173;52.112;8.648;2023-06-26T09:41:01;16.33;;;7.07;;
72261;SDS011;60173;52.112;8.648;2023-06-26T09:43:29;11.93;;;7.65;;
72261;SDS011;60173;52.112;8.648;2023-06-26T09:45:56;9.77;;;6.57;;
72261;SDS011;60173;52.112;8.648;2023-06-26T09:48:22;11.60;;;6.63;;
72261;SDS011;60173;52.112;8.648;2023-06-26T09:50:49;12.15;;;6.90;;
72261;SDS011;60173;52.112;8.648;2023-06-26T09:53:35;11.80;;;7.40;;
72261;SDS011;60173;52.112;8.648;2023-06-26T09:56:05;10.02;;;6.38;;
72261;SDS011;60173;52.112;8.648;2023-06-26T09:58:32;9.23;;;6.43;;
72261;SDS011;60173;52.112;8.648;2023-06-26T10:00:59;9.40;;;6.10;;
72261;SDS011;60173;52.112;8.648;2023-06-26T10:03:26;11.52;;;6.50;;
72261;SDS011;60173;52.112;8.648;2023-06-26T10:05:53;11.60;;;6.30;;
72261;SDS011;60173;52.112;8.648;2023-06-26T10:08:19;10.23;;;6.20;;
72261;SDS011;60173;52.112;8.648;2023-06-26T10:10:46;8.50;;;5.88;;
72261;SDS011;60173;52.112;8.648;2023-06-26T10:13:20;11.63;;;6.38;;
72261;SDS011;60173;52.112;8.648;2023-06-26T10:15:48;12.55;;;6.40;;
72261;SDS011;60173;52.112;8.648;2023-06-26T10:18:17;7.85;;;5.35;;
72261;SDS011;60173;52.112;8.648;2023-06-26T10:20:46;11.88;;;6.07;;
72261;SDS011;60173;52.112;8.648;2023-06-26T10:23:14;10.70;;;6.20;;
72261;SDS011;60173;52.112;8.648;2023-06-26T10:25:43;10.57;;;6.35;;
72261;SDS011;60173;52.112;8.648;2023-06-26T10:28:12;8.63;;;5.43;;
72261;SDS011;60173;52.112;8.648;2023-06-26T10:30:41;11.65;;;6.72;;
72261;SDS011;60173;52.112;8.648;2023-06-26T10:33:10;10.50;;;5.65;;
72261;SDS011;60173;52.112;8.648;2023-06-26T10:35:44;11.40;;;6.50;;
72261;SDS011;60173;52.112;8.648;2023-06-26T10:38:11;10.10;;;6.07;;
72261;SDS011;60173;52.112;8.648;2023-06-26T10:40:44;8.13;;;5.60;;
72261;SDS011;60173;52.112;8.648;2023-06-26T10:43:12;9.65;;;6.20;;
72261;SDS011;60173;52.112;8.648;2023-06-26T10:45:47;9.73;;;6.18;;
72261;SDS011;60173;52.112;8.648;2023-06-26T10:48:14;8.82;;;6.30;;
72261;SDS011;60173;52.112;8.648;2023-06-26T10:50:41;8.75;;;4.85;;
72261;SDS011;60173;52.112;8.648;2023-06-26T10:55:47;8.55;;;4.55;;
72261;SDS011;60173;52.112;8.648;2023-06-26T10:58:26;10.48;;;5.00;;
72261;SDS011;60173;52.112;8.648;2023-06-26T11:00:53;8.02;;;5.05;;
72261;SDS011;60173;52.112;8.648;2023-06-26T11:03:47;10.15;;;5.35;;
72261;SDS011;60173;52.112;8.648;2023-06-26T11:06:17;8.02;;;5.53;;
72261;SDS011;60173;52.112;8.648;2023-06-26T11:14:19;8.68;;;5.20;;
72261;SDS011;60173;52.112;8.648;2023-06-26T11:16:47;8.98;;;4.65;;
72261;SDS011;60173;52.112;8.648;2023-06-26T11:19:14;10.20;;;4.07;;
72261;SDS011;60173;52.112;8.648;2023-06-26T11:21:41;6.20;;;4.10;;
72261;SDS011;60173;52.112;8.648;2023-06-26T11:24:07;5.57;;;3.42;;
72261;SDS011;60173;52.112;8.648;2023-06-26T11:26:38;9.48;;;4.30;;
72261;SDS011;60173;52.112;8.648;2023-06-26T11:29:05;8.48;;;3.60;;
72261;SDS011;60173;52.112;8.648;2023-06-26T11:31:33;8.48;;;3.72;;
72261;SDS011;60173;52.112;8.648;2023-06-26T11:34:02;6.97;;;3.65;;
72261;SDS011;60173;52.112;8.648;2023-06-26T11:36:30;8.68;;;3.72;;
72261;SDS011;60173;52.112;8.648;2023-06-26T11:38:58;9.73;;;3.47;;
72261;SDS011;60173;52.112;8.648;2023-06-26T11:41:27;7.00;;;3.70;;
72261;SDS011;60173;52.112;8.648;2023-06-26T11:43:55;5.15;;;3.17;;
72261;SDS011;60173;52.112;8.648;2023-06-26T11:46:29;4.88;;;3.25;;
72261;SDS011;60173;52.112;8.648;2023-06-26T11:48:56;10.48;;;3.50;;
72261;SDS011;60173;52.112;8.648;2023-06-26T11:51:23;5.32;;;2.80;;
72261;SDS011;60173;52.112;8.648;2023-06-26T11:53:52;6.05;;;3.20;;
72261;SDS011;60173;52.112;8.648;2023-06-26T11:56:19;5.22;;;2.70;;
72261;SDS011;60173;52.112;8.648;2023-06-26T11:58:55;4.55;;;2.65;;
72261;SDS011;60173;52.112;8.648;2023-06-26T12:01:24;7.45;;;2.88;;
72261;SDS011;60173;52.112;8.648;2023-06-26T12:03:50;5.18;;;2.70;;
72261;SDS011;60173;52.112;8.648;2023-06-26T12:06:20;6.93;;;2.88;;
72261;SDS011;60173;52.112;8.648;2023-06-26T12:08:46;4.15;;;2.67;;
72261;SDS011;60173;52.112;8.648;2023-06-26T12:11:13;9.52;;;3.00;;
72261;SDS011;60173;52.112;8.648;2023-06-26T12:13:40;4.90;;;2.58;;
72261;SDS011;60173;52.112;8.648;2023-06-26T12:16:06;4.45;;;2.90;;
72261;SDS011;60173;52.112;8.648;2023-06-26T12:18:36;5.13;;;2.60;;
72261;SDS011;60173;52.112;8.648;2023-06-26T12:21:02;6.53;;;2.70;;
72261;SDS011;60173;52.112;8.648;2023-06-26T12:23:32;5.75;;;2.38;;
72261;SDS011;60173;52.112;8.648;2023-06-26T12:26:15;6.32;;;2.40;;
72261;SDS011;60173;52.112;8.648;2023-06-26T12:28:44;6.38;;;2.78;;
72261;SDS011;60173;52.112;8.648;2023-06-26T12:31:17;5.88;;;2.45;;
72261;SDS011;60173;52.112;8.648;2023-06-26T12:33:47;4.18;;;2.55;;
72261;SDS011;60173;52.112;8.648;2023-06-26T12:36:14;4.93;;;2.90;;
72261;SDS011;60173;52.112;8.648;2023-06-26T12:38:41;4.03;;;2.60;;
72261;SDS011;60173;52.112;8.648;2023-06-26T12:41:13;4.18;;;2.55;;
72261;SDS011;60173;52.112;8.648;2023-06-26T12:43:41;4.07;;;2.55;;
72261;SDS011;60173;52.112;8.648;2023-06-26T12:46:08;5.07;;;2.70;;
72261;SDS011;60173;52.112;8.648;2023-06-26T12:48:38;4.35;;;2.67;;
72261;SDS011;60173;52.112;8.648;2023-06-26T12:51:11;6.25;;;2.55;;
72261;SDS011;60173;52.112;8.648;2023-06-26T12:53:42;4.70;;;2.70;;
72261;SDS011;60173;52.112;8.648;2023-06-26T12:56:09;4.05;;;2.80;;
72261;SDS011;60173;52.112;8.648;2023-06-26T12:58:36;6.10;;;2.60;;
72261;SDS011;60173;52.112;8.648;2023-06-26T13:01:04;5.32;;;2.60;;
72261;SDS011;60173;52.112;8.648;2023-06-26T13:03:32;6.35;;;3.03;;
72261;SDS011;60173;52.112;8.648;2023-06-26T13:06:01;7.28;;;2.80;;
72261;SDS011;60173;52.112;8.648;2023-06-26T13:08:28;6.82;;;2.70;;
72261;SDS011;60173;52.112;8.648;2023-06-26T13:10:54;6.60;;;2.70;;
72261;SDS011;60173;52.112;8.648;2023-06-26T13:13:20;6.68;;;3.33;;
72261;SDS011;60173;52.112;8.648;2023-06-26T13:15:47;6.43;;;2.60;;
72261;SDS011;60173;52.112;8.648;2023-06-26T13:18:13;4.05;;;2.70;;
72261;SDS011;60173;52.112;8.648;2023-06-26T13:20:40;4.57;;;2.58;;
72261;SDS011;60173;52.112;8.648;2023-06-26T13:23:06;5.47;;;2.97;;
72261;SDS011;60173;52.112;8.648;2023-06-26T13:25:34;4.80;;;2.60;;
72261;SDS011;60173;52.112;8.648;2023-06-26T13:28:00;4.90;;;2.50;;
72261;SDS011;60173;52.112;8.648;2023-06-26T13:30:27;3.28;;;2.53;;
72261;SDS011;60173;52.112;8.648;2023-06-26T13:32:53;5.78;;;2.85;;
72261;SDS011;60173;52.112;8.648;2023-06-26T13:35:20;8.70;;;3.00;;
72261;SDS011;60173;52.112;8.648;2023-06-26T13:37:46;7.53;;;3.33;;
72261;SDS011;60173;52.112;8.648;2023-06-26T13:40:12;6.18;;;2.50;;
72261;SDS011;60173;52.112;8.648;2023-06-26T13:42:39;5.38;;;2.58;;
72261;SDS011;60173;52.112;8.648;2023-06-26T13:45:06;5.13;;;2.78;;
72261;SDS011;60173;52.112;8.648;2023-06-26T13:47:44;6.00;;;3.17;;
72261;SDS011;60173;52.112;8.648;2023-06-26T13:50:10;12.05;;;2.80;;
72261;SDS011;60173;52.112;8.648;2023-06-26T13:52:36;5.15;;;2.75;;
72261;SDS011;60173;52.112;8.648;2023-06-26T13:55:03;7.70;;;2.85;;
72261;SDS011;60173;52.112;8.648;2023-06-26T13:57:30;4.15;;;2.78;;
72261;SDS011;60173;52.112;8.648;2023-06-26T13:59:57;6.28;;;2.97;;
72261;SDS011;60173;52.112;8.648;2023-06-26T14:02:23;6.95;;;2.75;;
72261;SDS011;60173;52.112;8.648;2023-06-26T14:04:50;9.25;;;2.95;;
72261;SDS011;60173;52.112;8.648;2023-06-26T14:07:16;5.40;;;2.67;;
72261;SDS011;60173;52.112;8.648;2023-06-26T14:09:43;4.85;;;2.67;;
72261;SDS011;60173;52.112;8.648;2023-06-26T14:12:09;4.75;;;3.00;;
72261;SDS011;60173;52.112;8.648;2023-06-26T14:14:36;5.57;;;2.80;;
72261;SDS011;60173;52.112;8.648;2023-06-26T14:17:02;9.75;;;3.00;;
72261;SDS011;60173;52.112;8.648;2023-06-26T14:19:29;5.90;;;2.50;;
72261;SDS011;60173;52.112;8.648;2023-06-26T14:21:55;4.70;;;3.10;;
72261;SDS011;60173;52.112;8.648;2023-06-26T14:24:22;7.05;;;3.50;;
72261;SDS011;60173;52.112;8.648;2023-06-26T14:26:48;8.13;;;2.88;;
72261;SDS011;60173;52.112;8.648;2023-06-26T14:29:14;8.05;;;2.58;;
72261;SDS011;60173;52.112;8.648;2023-06-26T14:31:41;7.25;;;2.80;;
72261;SDS011;60173;52.112;8.648;2023-06-26T14:34:07;6.85;;;2.80;;
72261;SDS011;60173;52.112;8.648;2023-06-26T14:36:34;6.10;;;3.13;;
72261;SDS011;60173;52.112;8.648;2023-06-26T14:39:01;9.02;;;3.05;;
72261;SDS011;60173;52.112;8.648;2023-06-26T14:41:29;6.95;;;2.80;;
72261;SDS011;60173;52.112;8.648;2023-06-26T14:43:57;10.25;;;2.83;;
72261;SDS011;60173;52.112;8.648;2023-06-26T14:46:23;6.43;;;2.60;;
72261;SDS011;60173;52.112;8.648;2023-06-26T14:48:50;4.97;;;2.40;;
72261;SDS011;60173;52.112;8.648;2023-06-26T14:51:17;13.43;;;2.90;;
72261;SDS011;60173;52.112;8.648;2023-06-26T14:53:43;5.10;;;2.20;;
72261;SDS011;60173;52.112;8.648;2023-06-26T14:56:09;4.95;;;2.50;;
72261;SDS011;60173;52.112;8.648;2023-06-26T14:58:36;6.75;;;2.17;;
72261;SDS011;60173;52.112;8.648;2023-06-26T15:01:02;3.83;;;1.92;;
72261;SDS011;60173;52.112;8.648;2023-06-26T15:03:28;4.03;;;2.10;;
72261;SDS011;60173;52.112;8.648;2023-06-26T15:05:56;5.05;;;1.90;;